createdAt,value
2022-12-24T00:01:02.615Z,8.34
2022-12-24T00:03:29.034Z,8.18
2022-12-24T00:05:55.908Z,8.26
2022-12-24T00:08:22.548Z,8.38
2022-12-24T00:10:51.489Z,8.53
2022-12-24T00:13:18.586Z,8.50
2022-12-24T00:15:45.313Z,8.40
2022-12-24T00:18:11.421Z,8.33
2022-12-24T00:20:39.937Z,8.32
2022-12-24T00:23:06.191Z,8.17
2022-12-24T00:25:32.888Z,8.04
2022-12-24T00:27:59.247Z,8.06
2022-12-24T00:30:25.726Z,7.93
2022-12-24T00:32:51.886Z,7.87
2022-12-24T00:35:18.676Z,7.90
2022-12-24T00:37:47.718Z,7.96
2022-12-24T00:40:14.977Z,7.91
2022-12-24T00:42:41.322Z,7.73
2022-12-24T00:45:08.707Z,7.74
2022-12-24T00:47:34.823Z,7.71
2022-12-24T00:50:01.648Z,7.72
2022-12-24T00:52:27.900Z,7.70
2022-12-24T00:54:54.419Z,7.68
2022-12-24T00:57:20.805Z,7.71
2022-12-24T00:59:47.258Z,7.81
2022-12-24T01:02:13.595Z,7.73
2022-12-24T01:04:58.546Z,7.70
2022-12-24T01:07:24.952Z,7.66
2022-12-24T01:09:51.489Z,7.68
2022-12-24T01:12:17.730Z,7.70
2022-12-24T01:14:44.242Z,7.76
2022-12-24T01:17:10.431Z,7.79
2022-12-24T01:19:36.878Z,7.87
2022-12-24T01:22:03.191Z,7.83
2022-12-24T01:24:29.654Z,7.79
2022-12-24T01:26:56.177Z,7.82
2022-12-24T01:29:22.653Z,7.85
2022-12-24T01:31:48.782Z,7.90
2022-12-24T01:34:16.259Z,7.87
2022-12-24T01:36:42.428Z,7.84
2022-12-24T01:39:08.877Z,7.66
2022-12-24T01:41:53.709Z,7.52
2022-12-24T01:44:36.216Z,7.62
2022-12-24T01:47:19.968Z,7.66
2022-12-24T01:49:52.809Z,7.67
2022-12-24T01:52:23.625Z,7.74
2022-12-24T01:54:54.567Z,7.61
2022-12-24T01:57:27.109Z,7.66
2022-12-24T01:59:57.703Z,7.58
2022-12-24T02:02:25.402Z,7.50
2022-12-24T02:04:58.358Z,7.59
2022-12-24T02:07:24.860Z,7.58
2022-12-24T02:09:54.876Z,7.68
2022-12-24T02:12:21.072Z,7.63
2022-12-24T02:14:47.770Z,7.61
2022-12-24T02:17:32.199Z,7.59
2022-12-24T02:20:13.563Z,7.76
2022-12-24T02:22:54.908Z,7.74
2022-12-24T02:25:46.549Z,7.80
2022-12-24T02:28:18.947Z,7.85
2022-12-24T02:30:54.381Z,7.74
2022-12-24T02:33:31.424Z,7.92
2022-12-24T02:36:05.782Z,7.93
2022-12-24T02:38:38.876Z,7.94
2022-12-24T02:41:11.734Z,7.78
2022-12-24T02:43:41.741Z,7.81
2022-12-24T02:46:13.542Z,7.80
2022-12-24T02:48:42.568Z,7.65
2022-12-24T02:51:10.035Z,7.62
2022-12-24T02:53:37.627Z,7.53
2022-12-24T02:56:40.932Z,7.47
2022-12-24T02:59:22.175Z,7.52
2022-12-24T03:02:10.426Z,7.61
2022-12-24T03:04:48.944Z,7.61
2022-12-24T03:07:32.242Z,7.64
2022-12-24T03:10:17.004Z,7.62
2022-12-24T03:12:51.463Z,7.53
2022-12-24T03:15:22.105Z,7.57
2022-12-24T03:17:51.743Z,7.51
2022-12-24T03:20:29.268Z,7.40
2022-12-24T03:22:55.779Z,7.49
2022-12-24T03:25:24.865Z,7.46
2022-12-24T03:27:51.938Z,7.50
2022-12-24T03:30:18.154Z,7.41
2022-12-24T03:32:46.221Z,7.49
2022-12-24T03:35:12.628Z,7.52
2022-12-24T03:37:39.852Z,7.40
2022-12-24T03:40:07.419Z,7.43
2022-12-24T03:42:33.991Z,7.30
2022-12-24T03:45:00.562Z,7.36
2022-12-24T03:47:27.367Z,7.34
2022-12-24T03:49:53.697Z,7.40
2022-12-24T03:52:20.390Z,7.49
2022-12-24T03:54:46.793Z,7.48
2022-12-24T03:57:13.288Z,7.50
2022-12-24T03:59:39.700Z,7.46
2022-12-24T04:02:06.556Z,7.51
2022-12-24T04:04:36.031Z,7.36
2022-12-24T04:07:03.803Z,7.42
2022-12-24T04:09:30.577Z,7.25
2022-12-24T04:11:57.498Z,7.26
2022-12-24T04:14:23.898Z,7.22
2022-12-24T04:16:50.849Z,7.18
2022-12-24T04:19:17.296Z,7.24
2022-12-24T04:21:43.861Z,7.27
2022-12-24T04:24:10.291Z,7.18
2022-12-24T04:26:36.874Z,7.13
2022-12-24T04:29:03.220Z,7.12
2022-12-24T04:31:29.789Z,6.98
2022-12-24T04:33:56.033Z,6.98
2022-12-24T04:36:22.553Z,7.04
2022-12-24T04:38:49.038Z,7.01
2022-12-24T04:41:23.684Z,6.99
2022-12-24T04:43:52.622Z,6.98
2022-12-24T04:46:22.129Z,7.02
2022-12-24T04:48:50.665Z,7.00
2022-12-24T04:51:18.382Z,6.98
2022-12-24T04:53:44.866Z,6.97
2022-12-24T04:56:13.818Z,6.92
2022-12-24T04:58:40.507Z,6.87
2022-12-24T05:01:11.362Z,6.82
2022-12-24T05:03:37.653Z,6.74
2022-12-24T05:06:06.333Z,6.78
2022-12-24T05:08:33.518Z,6.79
2022-12-24T05:11:01.293Z,6.79
2022-12-24T05:13:36.495Z,6.78
2022-12-24T05:16:07.546Z,6.82
2022-12-24T05:18:33.759Z,6.81
2022-12-24T05:21:00.196Z,6.82
2022-12-24T05:23:44.771Z,6.90
2022-12-24T05:26:21.266Z,6.85
2022-12-24T05:28:48.816Z,6.88
2022-12-24T05:31:15.484Z,6.93
2022-12-24T05:33:41.662Z,6.95
2022-12-24T05:36:09.326Z,6.98
2022-12-24T05:38:35.966Z,6.93
2022-12-24T05:41:02.839Z,6.91
2022-12-24T05:43:29.050Z,6.91
2022-12-24T05:46:00.216Z,6.91
2022-12-24T05:48:27.319Z,6.91
2022-12-24T05:50:54.789Z,6.87
2022-12-24T05:53:21.548Z,6.86
2022-12-24T05:55:48.174Z,6.89
2022-12-24T05:58:14.650Z,6.87
2022-12-24T06:00:41.902Z,6.81
2022-12-24T06:03:08.188Z,6.86
2022-12-24T06:05:34.801Z,6.82
2022-12-24T06:08:01.085Z,6.87
2022-12-24T06:10:27.622Z,6.83
2022-12-24T06:12:55.163Z,6.87
2022-12-24T06:15:24.167Z,6.89
2022-12-24T06:17:50.681Z,6.81
2022-12-24T06:20:17.197Z,6.94
2022-12-24T06:22:43.461Z,6.99
2022-12-24T06:25:10.063Z,6.98
2022-12-24T06:27:36.361Z,6.99
2022-12-24T06:30:03.429Z,6.91
2022-12-24T06:32:30.302Z,6.97
2022-12-24T06:34:56.903Z,7.02
2022-12-24T06:37:23.369Z,7.05
2022-12-24T06:39:50.067Z,7.10
2022-12-24T06:42:16.255Z,7.18
2022-12-24T06:44:43.009Z,7.15
2022-12-24T06:47:09.342Z,7.30
2022-12-24T06:49:36.111Z,7.27
2022-12-24T06:52:02.536Z,7.26
2022-12-24T06:54:29.097Z,7.27
2022-12-24T06:56:57.859Z,7.23
2022-12-24T06:59:24.535Z,7.27
2022-12-24T07:01:50.742Z,7.31
2022-12-24T07:04:20.374Z,7.26
2022-12-24T07:06:47.392Z,7.42
2022-12-24T07:09:14.399Z,7.43
2022-12-24T07:11:40.871Z,7.55
2022-12-24T07:14:07.679Z,7.58
2022-12-24T07:16:34.041Z,7.62
2022-12-24T07:19:00.788Z,7.45
2022-12-24T07:21:27.089Z,7.45
2022-12-24T07:23:53.625Z,7.50
2022-12-24T07:26:19.876Z,7.46
2022-12-24T07:28:47.068Z,7.48
2022-12-24T07:31:13.458Z,7.44
2022-12-24T07:33:39.991Z,7.44
2022-12-24T07:36:09.489Z,7.43
2022-12-24T07:38:37.468Z,7.53
2022-12-24T07:41:03.881Z,7.52
2022-12-24T07:43:32.887Z,7.59
2022-12-24T07:45:59.193Z,7.48
2022-12-24T07:48:27.328Z,7.47
2022-12-24T07:50:53.882Z,7.60
2022-12-24T07:53:20.769Z,7.52
2022-12-24T07:55:46.964Z,7.45
2022-12-24T07:58:13.679Z,7.54
2022-12-24T08:00:40.086Z,7.62
2022-12-24T08:03:06.779Z,7.65
2022-12-24T08:05:35.296Z,7.64
2022-12-24T08:08:02.147Z,7.56
2022-12-24T08:10:28.650Z,7.55
2022-12-24T08:12:55.269Z,7.48
2022-12-24T08:15:21.595Z,7.62
2022-12-24T08:17:48.452Z,7.74
2022-12-24T08:20:16.764Z,7.72
2022-12-24T08:22:43.571Z,7.68
2022-12-24T08:25:10.151Z,7.66
2022-12-24T08:27:37.437Z,7.63
2022-12-24T08:30:04.778Z,7.78
2022-12-24T08:32:31.340Z,7.78
2022-12-24T08:34:57.526Z,7.64
2022-12-24T08:37:24.084Z,7.67
2022-12-24T08:39:50.578Z,7.66
2022-12-24T08:42:17.553Z,7.50
2022-12-24T08:44:43.853Z,7.52
2022-12-24T08:47:10.917Z,7.47
2022-12-24T08:49:38.841Z,7.54
2022-12-24T08:52:06.048Z,7.58
2022-12-24T08:54:32.898Z,7.57
2022-12-24T08:56:59.550Z,7.59
2022-12-24T08:59:25.789Z,7.64
2022-12-24T09:01:52.678Z,7.57
2022-12-24T09:04:19.682Z,7.54
2022-12-24T09:06:46.304Z,7.64
2022-12-24T09:09:12.535Z,7.63
2022-12-24T09:11:39.358Z,7.75
2022-12-24T09:14:05.528Z,7.71
2022-12-24T09:16:32.126Z,7.80
2022-12-24T09:18:58.838Z,7.85
2022-12-24T09:21:25.491Z,7.86
2022-12-24T09:23:51.782Z,7.83
2022-12-24T09:26:24.085Z,7.82
2022-12-24T09:28:51.555Z,7.86
2022-12-24T09:31:18.957Z,7.91
2022-12-24T09:33:47.562Z,7.88
2022-12-24T09:36:14.315Z,7.91
2022-12-24T09:38:40.582Z,7.90
2022-12-24T09:41:11.657Z,8.00
2022-12-24T09:43:39.048Z,7.96
2022-12-24T09:46:18.113Z,7.96
2022-12-24T09:48:58.051Z,7.98
2022-12-24T09:51:40.274Z,8.01
2022-12-24T09:54:17.220Z,8.11
2022-12-24T09:56:45.885Z,8.21
2022-12-24T09:59:22.333Z,8.29
2022-12-24T10:01:51.157Z,8.32
2022-12-24T10:04:26.356Z,8.36
2022-12-24T10:06:53.020Z,8.22
2022-12-24T10:09:37.474Z,8.22
2022-12-24T10:12:32.516Z,8.15
2022-12-24T10:15:37.271Z,8.34
2022-12-24T10:18:19.007Z,8.28
2022-12-24T10:21:14.657Z,8.41
2022-12-24T10:23:52.074Z,8.46
2022-12-24T10:26:26.630Z,8.58
2022-12-24T10:28:59.118Z,8.64
2022-12-24T10:31:34.011Z,8.65
2022-12-24T10:34:26.098Z,8.57
2022-12-24T10:36:52.377Z,8.49
2022-12-24T10:39:25.187Z,8.43
2022-12-24T10:41:56.952Z,8.40
2022-12-24T10:44:27.386Z,8.32
2022-12-24T10:46:54.178Z,8.38
2022-12-24T10:49:35.752Z,8.53
2022-12-24T10:52:10.203Z,8.50
2022-12-24T10:54:39.719Z,8.37
2022-12-24T10:57:24.443Z,8.28
2022-12-24T10:59:55.251Z,8.42
2022-12-24T11:02:39.382Z,8.51
2022-12-24T11:05:34.733Z,8.63
2022-12-24T11:08:22.480Z,8.65
2022-12-24T11:10:59.392Z,8.76
2022-12-24T11:13:43.009Z,8.79
2022-12-24T11:16:34.969Z,8.84
2022-12-24T11:19:03.732Z,8.74
2022-12-24T11:21:33.736Z,8.84
2022-12-24T11:24:13.508Z,8.75
2022-12-24T11:26:43.041Z,8.63
2022-12-24T11:29:16.307Z,8.64
2022-12-24T11:31:44.386Z,8.68
2022-12-24T11:34:29.143Z,8.60
2022-12-24T11:37:22.485Z,8.57
2022-12-24T11:39:55.049Z,8.60
2022-12-24T11:42:34.677Z,8.59
2022-12-24T11:45:05.831Z,8.67
2022-12-24T11:47:38.149Z,8.69
2022-12-24T11:50:19.708Z,8.77
2022-12-24T11:53:11.834Z,8.74
2022-12-24T11:55:47.844Z,8.68
2022-12-24T11:58:45.581Z,8.68
2022-12-24T12:01:16.289Z,8.69
2022-12-24T12:03:52.514Z,8.49
2022-12-24T12:06:31.971Z,8.66
2022-12-24T12:09:24.329Z,8.72
2022-12-24T12:12:00.113Z,8.83
2022-12-24T12:14:39.186Z,8.71
2022-12-24T12:17:34.395Z,8.65
2022-12-24T12:20:18.249Z,8.55
2022-12-24T12:22:44.334Z,8.57
2022-12-24T12:25:21.647Z,8.48
2022-12-24T12:27:52.228Z,8.55
2022-12-24T12:30:21.259Z,8.47
2022-12-24T12:32:59.672Z,8.42
2022-12-24T12:35:41.760Z,8.33
2022-12-24T12:38:22.190Z,8.51
2022-12-24T12:41:13.613Z,8.51
2022-12-24T12:44:09.048Z,8.56
2022-12-24T12:46:57.957Z,8.64
2022-12-24T12:49:44.832Z,8.70
2022-12-24T12:52:47.816Z,8.79
2022-12-24T12:55:29.726Z,8.85
2022-12-24T12:58:02.646Z,8.92
2022-12-24T13:00:33.001Z,8.91
2022-12-24T13:03:11.951Z,8.80
2022-12-24T13:06:19.088Z,8.72
2022-12-24T13:08:48.639Z,8.78
2022-12-24T13:11:30.296Z,8.82
2022-12-24T13:14:20.038Z,8.95
2022-12-24T13:17:01.639Z,9.01
2022-12-24T13:19:38.010Z,8.99
2022-12-24T13:22:13.932Z,8.96
2022-12-24T13:24:51.860Z,8.84
2022-12-24T13:27:33.709Z,8.85
2022-12-24T13:30:09.122Z,8.80
2022-12-24T13:32:37.906Z,8.82
2022-12-24T13:35:35.141Z,8.80
2022-12-24T13:38:28.819Z,8.77
2022-12-24T13:40:56.152Z,8.74
2022-12-24T13:43:22.676Z,8.78
2022-12-24T13:45:51.152Z,8.85
2022-12-24T13:48:36.043Z,8.86
2022-12-24T13:51:24.477Z,8.87
2022-12-24T13:53:58.182Z,8.81
2022-12-24T13:56:26.700Z,8.81
2022-12-24T13:59:10.247Z,8.80
2022-12-24T14:01:42.318Z,8.78
2022-12-24T14:04:20.802Z,8.85
2022-12-24T14:06:51.487Z,8.87
2022-12-24T14:09:26.388Z,8.85
2022-12-24T14:11:53.247Z,8.84
2022-12-24T14:14:35.068Z,8.78
2022-12-24T14:17:27.199Z,8.68
2022-12-24T14:19:55.952Z,8.57
2022-12-24T14:22:22.402Z,8.51
2022-12-24T14:24:58.771Z,8.30
2022-12-24T14:27:39.983Z,8.24
2022-12-24T14:30:28.255Z,8.33
2022-12-24T14:32:55.310Z,8.40
2022-12-24T14:35:36.220Z,8.38
2022-12-24T14:38:05.481Z,8.41
2022-12-24T14:40:37.968Z,8.45
2022-12-24T14:43:43.984Z,8.49
2022-12-24T14:46:16.401Z,8.37
2022-12-24T14:48:53.058Z,8.38
2022-12-24T14:51:52.962Z,8.28
2022-12-24T14:54:34.764Z,8.37
2022-12-24T14:57:09.722Z,8.34
2022-12-24T14:59:57.065Z,8.42
2022-12-24T15:02:29.658Z,8.35
2022-12-24T15:05:10.303Z,8.48
2022-12-24T15:07:47.112Z,8.48
2022-12-24T15:10:25.829Z,8.36
2022-12-24T15:12:53.862Z,8.36
2022-12-24T15:15:21.008Z,8.34
2022-12-24T15:17:47.623Z,8.34
2022-12-24T15:20:17.995Z,8.30
2022-12-24T15:22:49.018Z,8.37
2022-12-24T15:25:30.337Z,8.51
2022-12-24T15:27:57.772Z,8.59
2022-12-24T15:30:29.076Z,8.38
2022-12-24T15:32:57.593Z,8.33
2022-12-24T15:35:42.293Z,8.28
2022-12-24T15:38:28.203Z,8.33
2022-12-24T15:40:55.702Z,8.34
2022-12-24T15:43:22.718Z,8.26
2022-12-24T15:45:49.616Z,8.30
2022-12-24T15:48:37.562Z,8.50
2022-12-24T15:51:05.611Z,8.47
2022-12-24T15:53:35.226Z,8.45
2022-12-24T15:56:03.673Z,8.50
2022-12-24T15:58:35.700Z,8.32
2022-12-24T16:01:04.965Z,8.43
2022-12-24T16:03:32.832Z,8.59
2022-12-24T16:06:17.795Z,8.29
2022-12-24T16:08:45.455Z,8.14
2022-12-24T16:11:20.519Z,8.16
2022-12-24T16:13:49.927Z,8.26
2022-12-24T16:16:19.704Z,8.30
2022-12-24T16:18:58.096Z,8.30
2022-12-24T16:21:30.607Z,8.24
2022-12-24T16:24:05.529Z,8.32
2022-12-24T16:26:35.165Z,8.40
2022-12-24T16:29:01.671Z,8.37
2022-12-24T16:31:35.187Z,8.25
2022-12-24T16:34:02.814Z,8.23
2022-12-24T16:36:30.803Z,8.35
2022-12-24T16:39:17.036Z,8.42
2022-12-24T16:42:02.370Z,8.45
2022-12-24T16:44:28.989Z,8.47
2022-12-24T16:46:55.850Z,8.47
2022-12-24T16:49:22.833Z,8.52
2022-12-24T16:51:49.340Z,8.47
2022-12-24T16:54:15.583Z,8.34
2022-12-24T16:56:43.415Z,8.41
2022-12-24T16:59:16.518Z,8.44
2022-12-24T17:01:43.904Z,8.52
2022-12-24T17:04:10.445Z,8.57
2022-12-24T17:06:37.206Z,8.52
2022-12-24T17:09:03.962Z,8.59
2022-12-24T17:11:30.993Z,8.73
2022-12-24T17:13:57.307Z,8.73
2022-12-24T17:16:23.980Z,8.68
2022-12-24T17:18:51.352Z,8.67
2022-12-24T17:21:18.503Z,8.69
2022-12-24T17:23:44.822Z,8.55
2022-12-24T17:26:14.962Z,8.58
2022-12-24T17:28:42.016Z,8.65
2022-12-24T17:31:14.436Z,8.70
2022-12-24T17:33:41.312Z,8.71
2022-12-24T17:36:08.253Z,8.83
2022-12-24T17:38:35.538Z,8.76
2022-12-24T17:41:06.938Z,8.66
2022-12-24T17:43:34.483Z,8.55
2022-12-24T17:46:09.085Z,8.69
2022-12-24T17:48:35.676Z,8.67
2022-12-24T17:51:06.950Z,8.68
2022-12-24T17:53:34.355Z,8.84
2022-12-24T17:56:01.164Z,8.75
2022-12-24T17:58:28.576Z,8.79
2022-12-24T18:00:56.045Z,8.85
2022-12-24T18:03:22.639Z,8.70
2022-12-24T18:05:49.939Z,8.75
2022-12-24T18:08:16.273Z,8.67
2022-12-24T18:10:42.834Z,8.59
2022-12-24T18:13:15.513Z,8.65
2022-12-24T18:15:45.797Z,8.64
2022-12-24T18:18:12.386Z,8.58
2022-12-24T18:20:45.975Z,8.55
2022-12-24T18:23:12.880Z,8.61
2022-12-24T18:25:39.322Z,8.56
2022-12-24T18:28:05.495Z,8.45
2022-12-24T18:30:32.004Z,8.37
2022-12-24T18:32:59.719Z,8.49
2022-12-24T18:35:27.461Z,8.44
2022-12-24T18:37:53.730Z,8.28
2022-12-24T18:40:20.696Z,8.20
2022-12-24T18:42:46.977Z,8.49
2022-12-24T18:45:13.605Z,8.55
2022-12-24T18:47:39.847Z,8.55
2022-12-24T18:50:06.847Z,8.45
2022-12-24T18:52:33.277Z,8.51
2022-12-24T18:54:59.867Z,8.56
2022-12-24T18:57:26.234Z,8.45
2022-12-24T18:59:52.806Z,8.41
2022-12-24T19:02:19.095Z,8.61
2022-12-24T19:04:45.775Z,8.43
2022-12-24T19:07:12.092Z,8.42
2022-12-24T19:09:38.709Z,8.22
2022-12-24T19:12:05.221Z,8.21
2022-12-24T19:14:31.796Z,8.45
2022-12-24T19:16:57.985Z,8.29
2022-12-24T19:19:24.969Z,8.39
2022-12-24T19:21:51.289Z,8.46
2022-12-24T19:24:17.787Z,8.21
2022-12-24T19:26:44.195Z,8.47
2022-12-24T19:29:11.051Z,8.52
2022-12-24T19:31:37.375Z,8.52
2022-12-24T19:34:04.122Z,8.54
2022-12-24T19:36:30.554Z,8.60
2022-12-24T19:38:58.281Z,8.61
2022-12-24T19:41:26.816Z,8.56
2022-12-24T19:43:56.781Z,8.55
2022-12-24T19:46:26.016Z,8.64
2022-12-24T19:48:55.949Z,8.75
2022-12-24T19:51:23.784Z,8.58
2022-12-24T19:53:51.716Z,8.66
2022-12-24T19:56:20.191Z,8.41
2022-12-24T19:58:47.590Z,8.36
2022-12-24T20:01:17.023Z,8.29
2022-12-24T20:03:44.794Z,8.22
2022-12-24T20:06:12.584Z,8.20
2022-12-24T20:08:39.445Z,8.16
2022-12-24T20:11:07.431Z,8.17
2022-12-24T20:13:35.196Z,8.14
2022-12-24T20:16:06.125Z,8.10
2022-12-24T20:18:34.261Z,8.09
2022-12-24T20:21:03.750Z,8.08
2022-12-24T20:23:30.849Z,8.14
2022-12-24T20:26:02.629Z,8.22
2022-12-24T20:28:31.727Z,8.27
2022-12-24T20:30:58.292Z,8.33
2022-12-24T20:33:25.453Z,8.25
2022-12-24T20:35:51.903Z,8.28
2022-12-24T20:38:18.645Z,8.34
2022-12-24T20:40:45.857Z,8.50
2022-12-24T20:43:12.637Z,8.36
2022-12-24T20:45:39.206Z,8.30
2022-12-24T20:48:06.562Z,8.33
2022-12-24T20:50:33.297Z,8.28
2022-12-24T20:52:59.959Z,8.31
2022-12-24T20:55:26.335Z,8.26
2022-12-24T20:57:55.507Z,8.36
2022-12-24T21:00:22.073Z,8.21
2022-12-24T21:02:48.917Z,8.23
2022-12-24T21:05:15.768Z,8.22
2022-12-24T21:07:43.371Z,8.25
2022-12-24T21:10:11.691Z,8.24
2022-12-24T21:12:48.717Z,8.22
2022-12-24T21:15:16.806Z,8.18
2022-12-24T21:17:44.264Z,8.17
2022-12-24T21:20:11.615Z,8.16
2022-12-24T21:22:38.943Z,8.23
2022-12-24T21:25:06.520Z,8.23
2022-12-24T21:27:33.943Z,8.28
2022-12-24T21:30:00.308Z,8.38
2022-12-24T21:32:27.500Z,8.54
2022-12-24T21:34:53.800Z,8.53
2022-12-24T21:37:20.398Z,8.51
2022-12-24T21:39:47.316Z,8.56
2022-12-24T21:42:14.249Z,8.46
2022-12-24T21:44:40.997Z,8.46
2022-12-24T21:47:07.568Z,8.42
2022-12-24T21:49:52.392Z,8.45
2022-12-24T21:52:18.873Z,8.45
2022-12-24T21:54:45.175Z,8.42
2022-12-24T21:57:30.495Z,8.42
2022-12-24T22:00:17.845Z,8.42
2022-12-24T22:02:45.631Z,8.36
2022-12-24T22:05:13.582Z,8.42
2022-12-24T22:07:59.466Z,8.40
2022-12-24T22:10:44.989Z,8.44
2022-12-24T22:13:11.854Z,8.46
2022-12-24T22:15:44.328Z,8.46
2022-12-24T22:18:12.210Z,8.46
2022-12-24T22:20:39.592Z,8.47
2022-12-24T22:23:06.579Z,8.48
2022-12-24T22:25:33.710Z,8.55
2022-12-24T22:28:00.760Z,8.60
2022-12-24T22:30:27.060Z,8.61
2022-12-24T22:32:53.580Z,8.62
2022-12-24T22:35:19.927Z,8.61
2022-12-24T22:37:46.477Z,8.62
2022-12-24T22:40:13.155Z,8.62
2022-12-24T22:42:40.265Z,8.59
2022-12-24T22:45:07.596Z,8.59
2022-12-24T22:47:34.446Z,8.56
2022-12-24T22:50:00.669Z,8.58
2022-12-24T22:52:27.193Z,8.62
2022-12-24T22:54:53.338Z,8.64
2022-12-24T22:57:19.801Z,8.67
2022-12-24T22:59:46.828Z,8.63
2022-12-24T23:02:13.635Z,8.71
2022-12-24T23:04:40.947Z,8.71
2022-12-24T23:07:09.862Z,8.75
2022-12-24T23:09:36.216Z,8.77
2022-12-24T23:12:02.955Z,8.82
2022-12-24T23:14:47.981Z,8.84
2022-12-24T23:17:14.695Z,8.83
2022-12-24T23:19:41.176Z,8.82
2022-12-24T23:22:08.166Z,8.81
2022-12-24T23:24:34.573Z,8.80
2022-12-24T23:27:01.153Z,8.62
2022-12-24T23:29:28.916Z,8.66
2022-12-24T23:31:55.419Z,8.58
2022-12-24T23:34:21.721Z,8.55
2022-12-24T23:36:48.260Z,8.57
2022-12-24T23:39:14.491Z,8.58
2022-12-24T23:41:40.903Z,8.57
2022-12-24T23:44:07.155Z,8.55
2022-12-24T23:46:33.777Z,8.53
2022-12-24T23:49:00.130Z,8.56
2022-12-24T23:51:27.764Z,8.55
2022-12-24T23:53:56.502Z,8.58
2022-12-24T23:56:24.379Z,8.55
2022-12-24T23:58:51.151Z,8.56
